SAS1790 EKCH-EETN
Flight info
| Callsign | SAS1790 |
|---|---|
| Flight time | N/A |
| Altitude | 39000 |
| Route | KEMAX DCT ROGMI DCT DOLEX DCT OSMUR |
| Aircraft | CRJ9/M-SDFGIRWY/S |
Departure
| Time | 2026-05-06 20:38 |
|---|---|
| Airport | Copenhagen Kastrup Airport (EKCH) |
Arrival
| Time | N/A |
|---|---|
| Airport | Lennart Meri Tallinn Airport (EETN) |
| Time | Latitude | Longitude | Altitude | Speed | Heading |
|---|---|---|---|---|---|
| 2026-05-06 20:20 | 55.62735 | 12.66134 | 16 ft | 0 kts | 311° |
| 2026-05-06 20:29 | 55.62734 | 12.66137 | 15 ft | 2 kts | 311° |
| 2026-05-06 20:29 | 55.62717 | 12.66171 | 16 ft | 4 kts | 311° |
| 2026-05-06 20:29 | 55.62708 | 12.66187 | 15 ft | 4 kts | 311° |
| 2026-05-06 20:29 | 55.62694 | 12.66220 | 15 ft | 4 kts | 287° |
| 2026-05-06 20:30 | 55.62701 | 12.66248 | 15 ft | 4 kts | 219° |
| 2026-05-06 20:30 | 55.62731 | 12.66291 | 15 ft | 1 kts | 221° |
| 2026-05-06 20:35 | 55.62728 | 12.66287 | 15 ft | 4 kts | 219° |
| 2026-05-06 20:35 | 55.62705 | 12.66254 | 15 ft | 17 kts | 219° |
| 2026-05-06 20:35 | 55.62619 | 12.66141 | 15 ft | 17 kts | 193° |
| 2026-05-06 20:36 | 55.62507 | 12.66202 | 15 ft | 17 kts | 126° |
| 2026-05-06 20:36 | 55.62536 | 12.66339 | 15 ft | 24 kts | 42° |
| 2026-05-06 20:36 | 55.62646 | 12.66604 | 15 ft | 0 kts | 78° |
| 2026-05-06 20:36 | 55.62644 | 12.66635 | 15 ft | 8 kts | 105° |
| 2026-05-06 20:37 | 55.62578 | 12.66727 | 14 ft | 11 kts | 175° |
| 2026-05-06 20:37 | 55.62437 | 12.66596 | 18 ft | 51 kts | 219° |
| 2026-05-06 20:37 | 55.61989 | 12.65915 | 17 ft | 115 kts | 221° |
| 2026-05-06 20:37 | 55.61258 | 12.64782 | 41 ft | 161 kts | 220° |
| 2026-05-06 20:38 | 55.60394 | 12.63358 | 559 ft | 172 kts | 221° |
| 2026-05-06 20:38 | 55.59487 | 12.61864 | 1138 ft | 186 kts | 219° |
| 2026-05-06 20:38 | 55.58474 | 12.60297 | 1725 ft | 195 kts | 217° |
| 2026-05-06 20:38 | 55.57421 | 12.58715 | 2179 ft | 217 kts | 216° |
| 2026-05-06 20:39 | 55.56267 | 12.56926 | 2751 ft | 222 kts | 219° |
| 2026-05-06 20:39 | 55.55057 | 12.55296 | 3207 ft | 233 kts | 207° |
| 2026-05-06 20:39 | 55.53512 | 12.53853 | 3409 ft | 256 kts | 202° |
| 2026-05-06 20:39 | 55.52092 | 12.52660 | 5048 ft | 197 kts | 205° |
| 2026-05-06 20:40 | 55.50973 | 12.51483 | 5804 ft | 193 kts | 212° |
| 2026-05-06 20:40 | 55.49717 | 12.50011 | 5370 ft | 242 kts | 213° |